Flight Track Log - Related Links

Times and Time Zones

All times are in EDT time to prevent confusion due to time zone crossing. See the N225SB flight status page for this flight to view local times or setup timezone preferences in your user account.

Time Position Orientation Groundspeed Altitude Reporting Facility
EDT Latitude Longitude Course Direction KTS MPH feet Rate Location/Type
Tue 02:08:34 PM 33.8333 -84.4833 12° North 232 267 3,200  Level Atlanta TRACON
Tue 02:09:34 PM 33.9000 -84.4667 12° North 273 314 6,300 2,895 Climbing Atlanta TRACON
Tue 02:10:28 PM 33.9667 -84.4333 23° Northeast 289 333 8,700 2,443 Climbing Atlanta TRACON
Tue 02:12:21 PM 34.1256 -84.3725 18° North 338 389 13,100 2,220 Climbing Atlanta Center
Tue 02:13:21 PM 34.2133 -84.3453 14° North 337 388 15,100 2,000 Climbing Atlanta Center
Tue 02:14:21 PM 34.3075 -84.3206 12° North 337 388 17,100 1,650 Climbing Atlanta Center
Tue 02:15:21 PM 34.3908 -84.2956 14° North 337 388 18,400 1,450 Climbing Atlanta Center
Tue 02:16:21 PM 34.4892 -84.2731 11° North 344 396 20,000 1,550 Climbing Atlanta Center
Tue 02:17:21 PM 34.5933 -84.2456 12° North 361 415 21,500 1,500 Climbing Atlanta Center
Tue 02:18:21 PM 34.6978 -84.2156 13° North 377 434 23,000 1,450 Climbing Atlanta Center
Tue 02:19:21 PM 34.8022 -84.1931 10° North 377 434 24,400 1,400 Climbing Atlanta Center
Tue 02:20:21 PM 34.9086 -84.1628 13° North 377 434 25,800 1,400 Climbing Atlanta Center
Tue 02:21:21 PM 35.0172 -84.1353 12° North 388 447 27,200 1,450 Climbing Atlanta Center
Tue 02:22:21 PM 35.1236 -84.1072 12° North 388 447 28,700 1,400 Climbing Atlanta Center
Tue 02:23:21 PM 35.2281 -84.0794 12° North 388 447 30,000 1,050 Climbing Atlanta Center
Tue 02:24:21 PM 35.3344 -84.0489 13° North 393 452 30,800 750 Climbing Atlanta Center
Tue 02:25:21 PM 35.4469 -84.0208 11° North 393 452 31,500 700 Climbing Atlanta Center
Tue 02:26:21 PM 35.5617 -83.9878 13° North 405 466 32,200 700 Climbing Atlanta Center
Tue 02:27:21 PM 35.6764 -83.9569 12° North 411 473 32,900 750 Climbing Atlanta Center
Tue 02:28:21 PM 35.8078 -83.9208 13° North 426 490 33,700 750 Climbing Atlanta Center
Tue 02:29:21 PM 35.9183 -83.8669 22° Northeast 426 490 34,400 650 Climbing Atlanta Center
Tue 02:30:21 PM 36.0058 -83.7614 44° Northeast 426 490 35,000 600 Climbing Atlanta Center
Tue 02:31:21 PM 36.0889 -83.6481 48° Northeast 426 490 35,600 500 Climbing Atlanta Center
Tue 02:32:21 PM 36.1617 -83.5425 49° Northeast 435 501 36,000 387 Climbing Atlanta Center
Tue 02:32:54 PM 36.2175 -83.4667 48° Northeast 453 521 36,200 505 Climbing Indianapolis Center
Tue 02:33:56 PM 36.2986 -83.3497 49° Northeast 449 517 36,800 484 Climbing Indianapolis Center
Tue 02:34:58 PM 36.3828 -83.2311 49° Northeast 456 525 37,200 435 Climbing Indianapolis Center
Tue 02:36:00 PM 36.4672 -83.1131 48° Northeast 457 526 37,700 484 Climbing Indianapolis Center
Tue 02:37:02 PM 36.5500 -82.9967 48° Northeast 455 524 38,200 484 Climbing Indianapolis Center
Tue 02:38:04 PM 36.6461 -82.8614 48° Northeast 452 520 38,700 435 Climbing Indianapolis Center
Tue 02:39:06 PM 36.7244 -82.7456 50° Northeast 443 510 39,100 435 Climbing Indianapolis Center
Tue 02:40:08 PM 36.8064 -82.6303 48° Northeast 448 516 39,600 435 Climbing Indianapolis Center
Tue 02:41:10 PM 36.8864 -82.5192 48° Northeast 433 498 40,000 435 Climbing Indianapolis Center
Tue 02:42:12 PM 36.9769 -82.3900 49° Northeast 427 491 40,500 441 Climbing Indianapolis Center
Tue 02:43:26 PM 37.0558 -82.2811 48° Northeast 424 488 41,000 221 Climbing Indianapolis Center
Tue 02:44:28 PM 37.1458 -82.1494 49° Northeast 424 488 41,000  Level Indianapolis Center
Tue 02:45:30 PM 37.2244 -82.0369 49° Northeast 428 493 41,000  Level Indianapolis Center
Tue 02:46:32 PM 37.3172 -81.9036 49° Northeast 433 498 41,000  Level Indianapolis Center
Tue 02:47:34 PM 37.3961 -81.7872 50° Northeast 436 502 41,000  Level Indianapolis Center
Tue 02:48:36 PM 37.4756 -81.6719 49° Northeast 436 502 41,000  Level Indianapolis Center
Tue 02:49:38 PM 37.5553 -81.5556 49° Northeast 438 504 41,000  Level Indianapolis Center
Tue 02:50:40 PM 37.6386 -81.4311 50° Northeast 440 506 41,000  Level Indianapolis Center
Tue 02:51:42 PM 37.7158 -81.3150 50° Northeast 442 509 41,000  Level Indianapolis Center
Tue 02:52:44 PM 37.8100 -81.1753 50° Northeast 445 512 41,000  Level Indianapolis Center
Tue 02:53:46 PM 37.8797 -81.0706 50° Northeast 446 513 41,000  Level Indianapolis Center
Tue 02:54:48 PM 37.9311 -80.9289 65° Northeast 463 533 41,000  Level Indianapolis Center
Tue 02:55:50 PM 37.9361 -80.7347 88° East 463 533 41,000  Level Indianapolis Center
Tue 02:56:53 PM 37.9436 -80.5747 87° East 456 525 41,000  Level Indianapolis Center
Tue 02:57:55 PM 37.9708 -80.4175 78° East 455 524 41,000  Level Indianapolis Center
Tue 02:58:57 PM 37.9939 -80.2625 79° East 457 526 41,000  Level Indianapolis Center
Tue 02:59:59 PM 38.0233 -80.0781 78° East 456 525 41,000  Level Indianapolis Center
Tue 03:01:01 PM 38.0475 -79.9219 79° East 459 528 41,000  Level Indianapolis Center
Tue 03:02:03 PM 38.0722 -79.7678 78° East 457 526 41,000  Level Indianapolis Center
Tue 03:03:05 PM 38.1067 -79.6164 74° East 457 526 41,000  Level Indianapolis Center
Tue 03:04:07 PM 38.1458 -79.4344 75° East 456 525 41,000  Level Indianapolis Center
Tue 03:05:13 PM 38.1853 -79.2850 71° East 455 524 41,000  Level Washington Center
Tue 03:06:13 PM 38.2169 -79.1331 75° East 450 518 41,000  Level Washington Center
Tue 03:07:14 PM 38.2508 -78.9733 75° East 450 518 41,000  Level Washington Center
Tue 03:08:12 PM 38.2800 -78.8214 76° East 450 518 41,000  Level Washington Center
Tue 03:09:13 PM 38.3133 -78.6667 75° East 450 518 41,000  Level Washington Center
Tue 03:10:13 PM 38.3442 -78.5092 76° East 450 518 41,000  Level Washington Center
Tue 03:11:14 PM 38.3792 -78.3569 74° East 450 518 41,000  Level Washington Center
Tue 03:12:12 PM 38.4097 -78.2017 76° East 450 518 41,000  Level Washington Center
Tue 03:13:13 PM 38.4422 -78.0464 75° East 450 518 41,000  Level Washington Center
Tue 03:14:14 PM 38.4744 -77.8911 75° East 450 518 41,000  Level Washington Center
Tue 03:15:12 PM 38.5064 -77.7356 75° East 450 518 41,000  Level Washington Center
Tue 03:16:13 PM 38.5364 -77.5797 76° East 450 518 41,000  Level Washington Center
Tue 03:17:13 PM 38.5722 -77.4239 74° East 450 518 41,000  Level Washington Center
Tue 03:18:14 PM 38.6428 -77.2956 55° Northeast 442 509 41,000  Level Washington Center
Tue 03:19:12 PM 38.7175 -77.1694 53° Northeast 437 503 41,000  Level Washington Center
Tue 03:20:13 PM 38.7919 -77.0433 53° Northeast 437 503 41,000  Level Washington Center
Tue 03:21:14 PM 38.8644 -76.9192 53° Northeast 437 503 41,000  Level Washington Center
Tue 03:22:12 PM 38.9367 -76.7953 53° Northeast 437 503 41,000  Level Washington Center
Tue 03:23:13 PM 39.0086 -76.6681 54° Northeast 437 503 41,000  Level Washington Center
Tue 03:24:13 PM 39.0783 -76.5408 55° Northeast 432 497 41,000  Level Washington Center
Tue 03:25:14 PM 39.1522 -76.4133 53° Northeast 432 497 41,000  Level Washington Center
Tue 03:26:12 PM 39.2219 -76.2908 54° Northeast 432 497 41,000  Level Washington Center
Tue 03:27:13 PM 39.2956 -76.1656 53° Northeast 432 497 41,000 -246 Level Washington Center
Tue 03:28:14 PM 39.3647 -76.0425 54° Northeast 432 497 40,500 -655 Descending Washington Center
Tue 03:29:12 PM 39.4319 -75.9219 54° Northeast 432 497 39,700 -1,109 Descending Washington Center
Tue 03:30:13 PM 39.4989 -75.7986 55° Northeast 427 491 38,300 -1,426 Descending Washington Center
Tue 03:31:14 PM 39.5781 -75.6803 49° Northeast 432 497 36,800 -1,488 Descending Washington Center
Tue 03:32:14 PM 39.6636 -75.5644 46° Northeast 432 497 35,300 -1,576 Descending Washington Center
Tue 03:33:12 PM 39.7469 -75.4539 46° Northeast 432 497 33,700 -1,678 Descending Washington Center
Tue 03:34:12 PM 39.8319 -75.3431 45° Northeast 427 491 32,000 -1,824 Descending Washington Center
Tue 03:34:54 PM 39.8989 -75.2572 45° Northeast 426 490 30,600 -1,824 Descending New York Center
Tue 03:35:54 PM 39.9783 -75.1403 48° Northeast 426 490 28,900 -1,750 Descending New York Center
Tue 03:36:54 PM 40.0317 -74.9944 64° Northeast 426 490 27,100 -950 Descending New York Center
Tue 03:37:54 PM 40.0803 -74.8564 65° Northeast 436 502 27,000 -50 Descending New York Center
Tue 03:38:54 PM 40.1400 -74.6917 65° Northeast 449 517 27,000  Level New York Center
Tue 03:39:54 PM 40.1889 -74.5342 68° East 454 522 27,000  Level New York Center
Tue 03:40:54 PM 40.2494 -74.4042 59° Northeast 463 533 27,000  Level New York Center
Tue 03:41:54 PM 40.3183 -74.2633 57° Northeast 453 521 27,000 -250 Level New York Center
Tue 03:42:54 PM 40.3892 -74.1225 57° Northeast 453 521 26,500 -900 Descending New York Center
Tue 03:43:54 PM 40.4531 -73.9947 57° Northeast 442 509 25,200 -1,232 Descending New York Center
Tue 03:46:04 PM 40.5842 -73.7325 57° Northeast 395 455 22,600 -1,131 Descending Boston Center
Tue 03:47:05 PM 40.6417 -73.6081 59° Northeast 389 448 21,600 -1,041 Descending Boston Center
Tue 03:48:05 PM 40.7033 -73.4750 59° Northeast 399 459 20,500 -1,169 Descending Boston Center
Tue 03:49:03 PM 40.7711 -73.3500 54° Northeast 410 472 19,300 -915 Descending Boston Center
Tue 03:50:03 PM 40.8469 -73.2386 48° Northeast 410 472 18,700 -836 Descending Boston Center
Tue 03:51:05 PM 40.9311 -73.1433 41° Northeast 397 457 17,600 -1,279 Descending Boston Center
Tue 03:52:05 PM 41.0128 -73.0533 40° Northeast 392 451 16,100 -1,438 Descending Boston Center
Tue 03:53:06 PM 41.0906 -72.9578 43° Northeast 380 437 14,700 -1,412 Descending Boston Center
Tue 03:54:04 PM 41.1681 -72.8647 42° Northeast 380 437 13,300 -1,574 Descending Boston Center
Tue 03:54:07 PM 41.1825 -72.8539 29° Northeast 370 426 13,100 -1,300 Descending Boston Center
Tue 03:55:04 PM 41.2453 -72.7769 43° Northeast 370 426 12,000 -1,333 Descending Boston Center
Tue 03:55:37 PM 41.2956 -72.7219 39° Northeast 358 412 11,100 -984 Descending Boston Center
Tue 03:56:05 PM 41.3331 -72.7083 15° North 351 404 11,000 -414 Descending Boston Center
Tue 03:56:35 PM 41.3769 -72.6975 10° North 333 383 10,700 -800 Descending Boston Center
Tue 03:57:05 PM 41.4186 -72.6947 North 326 375 10,200 -724 Descending Boston Center
Tue 03:57:33 PM 41.4686 -72.6922 North 305 351 10,000 -207 Descending Boston Center
Tue 03:58:03 PM 41.5081 -72.6869 North 312 359 10,000 -87 Level Boston Center
Tue 03:58:42 PM 41.5581 -72.6758 North 280 322 9,900 -295 Descending Boston Center
Tue 03:59:04 PM 41.5792 -72.6733 North 282 325 9,700 -1,200 Descending Boston Center
Tue 03:59:37 PM 41.6228 -72.6594 13° North 259 298 8,800 -1,400 Descending Boston Center
Tue 04:00:04 PM 41.6519 -72.6511 12° North 255 293 8,300 -1,273 Descending Boston Center
Tue 04:00:43 PM 41.6917 -72.6403 12° North 234 269 7,400 -1,068 Descending Boston Center
Tue 04:01:17 PM 41.7103 -72.6347 13° North 244 281 7,000 -358 Descending Boston Center
Tue 04:01:50 PM 41.7667 -72.6239 North 236 272 7,000  Level Boston Center
Tue 04:02:17 PM 41.7958 -72.6156 12° North 239 275 7,000  Level Boston Center
Tue 04:02:45 PM 41.8272 -72.6128 North 242 278 7,000  Level Boston Center
Tue 04:03:15 PM 41.8606 -72.6128 360° North 234 269 7,000  Level Boston Center
Tue 04:03:52 PM 41.8897 -72.6353 330° Northwest 224 258 7,000  Level Boston Center
Tue 04:04:16 PM 41.9125 -72.6467 340° North 224 258 7,000  Level Boston Center
Tue 04:04:53 PM 41.9478 -72.6831 323° Northwest 223 257 7,000  Level Boston Center
Tue 04:05:17 PM 41.9667 -72.6914 342° North 219 252 7,000  Level Boston Center
Tue 04:05:54 PM 42.0019 -72.7222 327° Northwest 214 246 7,000 -103 Level Boston Center
Tue 04:06:15 PM 42.0167 -72.7308 337° Northwest 219 252 6,900 -1,125 Descending Boston Center
Tue 04:06:42 PM 42.0417 -72.7281 North 158 182 6,100 -1,429 Descending Boston Center
Tue 04:07:18 PM 42.0603 -72.7225 12° North 172 198 5,400 -1,810 Descending Boston Center
Tue 04:07:45 PM 42.0792 -72.7003 41° Northeast 150 173 4,200 -2,000 Descending Boston Center
Tue 04:08:15 PM 42.0897 -72.6892 38° Northeast 141 162 3,500 -1,967 Descending Boston Center
Tue 04:08:46 PM 42.1106 -72.6781 22° Northeast 137 158 2,200 -1,976 Descending Boston Center
Tue 04:09:40 PM 42.1375 -72.7006 328° Northwest 121 139 700 -1,667 Descending Boston Center
Tue 04:11:00 PM 42.1500 -72.7000 29° Northeast  Level FlightAware Approximate
Tue 04:18:00 PM 42.1579 -72.7159 29° Northeast  Level Estimated
Tue 04:19:00 PM 42.1579 -72.7159 29° Northeast  Level Estimated
Tue 04:20:00 PM 42.1579 -72.7159 29° Northeast  Level Estimated
Tue 04:21:00 PM 42.1579 -72.7159 29° Northeast  Level Estimated
Tue 04:22:00 PM 42.1579 -72.7159 29° Northeast  Level Estimated
Tue 04:23:00 PM 42.1579 -72.7159 29° Northeast  Level Estimated

Login

Don't have an account? Register now (free) for customized features, flight alerts, and more!